Time;durP1;ratioP1;P1;durP2;ratioP2;P2;SDS_P1;SDS_P2;PMS_P1;PMS_P2;Temp;Humidity;BMP_temperature;BMP_pressure;BME280_temperature;BME280_humidity;BME280_pressure;Samples;Min_cycle;Max_cycle;Signal;HPM_P1;HPM_P2
2022/11/02 00:01:16;;;;;;;12.43;1.88;;;10.20;99.90;;;;;;5073277;28;20087;-60
2022/11/02 00:03:43;;;;;;;10.13;1.90;;;10.20;99.90;;;;;;5074271;28;20037;-62
2022/11/02 00:06:10;;;;;;;7.18;1.55;;;10.20;99.90;;;;;;5074283;28;20036;-61
2022/11/02 00:08:37;;;;;;;8.40;1.42;;;10.20;99.90;;;;;;5073688;28;20074;-61
2022/11/02 00:11:03;;;;;;;7.25;1.70;;;10.20;99.90;;;;;;5049507;28;20091;-60
2022/11/02 00:13:30;;;;;;;9.43;1.42;;;10.20;99.90;;;;;;5052715;28;20544;-62
2022/11/02 00:15:57;;;;;;;12.35;1.35;;;10.20;99.90;;;;;;5052772;28;20091;-62
2022/11/02 00:18:24;;;;;;;9.52;1.58;;;10.20;99.90;;;;;;5053918;28;20037;-62
2022/11/02 00:20:51;;;;;;;10.75;1.40;;;10.20;99.90;;;;;;5051740;28;20086;-62
2022/11/02 00:23:18;;;;;;;9.48;1.63;;;10.20;99.90;;;;;;5045173;28;20076;-61
2022/11/02 00:25:44;;;;;;;7.75;1.30;;;10.20;99.90;;;;;;5050317;28;20652;-62
2022/11/02 00:28:11;;;;;;;5.68;1.38;;;10.20;99.90;;;;;;5035227;28;20103;-60
2022/11/02 00:30:38;;;;;;;7.78;1.50;;;10.10;99.90;;;;;;5035982;28;20086;-61
2022/11/02 00:33:04;;;;;;;8.35;1.58;;;10.20;99.90;;;;;;5046286;28;20072;-61
2022/11/02 00:35:32;;;;;;;11.70;1.40;;;10.20;99.90;;;;;;5033343;28;20531;-62
2022/11/02 00:37:58;;;;;;;7.72;1.35;;;10.20;99.90;;;;;;5033460;28;20124;-61
2022/11/02 00:40:25;;;;;;;8.40;1.80;;;10.10;99.90;;;;;;5033671;28;20484;-61
2022/11/02 00:42:52;;;;;;;5.97;1.05;;;10.10;99.90;;;;;;5033450;28;20044;-62
2022/11/02 00:45:19;;;;;;;7.35;1.30;;;10.10;99.90;;;;;;5034347;28;20476;-62
2022/11/02 00:47:46;;;;;;;9.25;1.25;;;10.10;99.90;;;;;;5032488;28;20056;-61
2022/11/02 00:50:13;;;;;;;8.40;1.17;;;10.10;99.90;;;;;;5048055;28;20105;-61
2022/11/02 00:52:41;;;;;;;7.32;1.45;;;10.10;99.90;;;;;;5051609;28;20055;-62
2022/11/02 00:55:08;;;;;;;7.97;2.20;;;10.10;99.90;;;;;;5052181;28;20530;-61
2022/11/02 00:57:35;;;;;;;6.05;1.17;;;10.10;99.90;;;;;;5051239;28;20044;-62
2022/11/02 01:00:02;;;;;;;5.28;1.40;;;10.10;99.90;;;;;;5052673;28;20103;-62
2022/11/02 01:02:29;;;;;;;6.60;1.27;;;10.10;99.90;;;;;;5066363;28;20442;-62
2022/11/02 01:04:56;;;;;;;6.93;1.20;;;10.00;99.90;;;;;;5053182;28;20453;-62
2022/11/02 01:07:22;;;;;;;7.28;1.50;;;10.00;99.90;;;;;;5040368;28;20353;-62
2022/11/02 01:09:49;;;;;;;7.80;1.00;;;10.00;99.90;;;;;;5031990;28;20072;-62
2022/11/02 01:12:17;;;;;;;8.57;1.40;;;10.00;99.90;;;;;;5033686;28;20125;-61
2022/11/02 01:14:44;;;;;;;5.65;1.05;;;10.00;99.90;;;;;;5036187;28;20140;-62
2022/11/02 01:17:12;;;;;;;5.78;1.50;;;10.00;99.90;;;;;;5035435;28;20050;-61
2022/11/02 01:19:39;;;;;;;6.65;1.30;;;10.00;99.90;;;;;;5048362;28;20044;-60
2022/11/02 01:22:06;;;;;;;6.28;1.30;;;10.00;99.90;;;;;;5055379;28;20068;-61
2022/11/02 01:24:33;;;;;;;6.43;1.35;;;9.90;99.90;;;;;;5056956;28;20044;-61
2022/11/02 01:27:01;;;;;;;5.95;1.20;;;9.90;99.90;;;;;;5056556;28;20116;-61
2022/11/02 01:29:28;;;;;;;3.45;1.00;;;9.90;99.90;;;;;;5057206;28;20094;-61
2022/11/02 01:31:54;;;;;;;5.97;1.30;;;9.90;99.90;;;;;;5055536;28;20077;-61
2022/11/02 01:34:21;;;;;;;8.38;1.40;;;9.90;99.90;;;;;;5055125;28;20067;-61
2022/11/02 01:36:48;;;;;;;6.20;1.20;;;9.90;99.90;;;;;;5019557;28;20100;-62
2022/11/02 01:39:15;;;;;;;8.48;1.20;;;9.80;99.90;;;;;;5035357;28;20049;-61
2022/11/02 01:41:42;;;;;;;8.32;1.75;;;9.80;99.90;;;;;;5036430;28;20041;-60
2022/11/02 01:44:09;;;;;;;6.78;1.20;;;9.80;99.90;;;;;;5035201;28;20048;-61
2022/11/02 01:46:37;;;;;;;6.55;1.38;;;9.80;99.90;;;;;;5036472;28;20122;-61
2022/11/02 01:49:03;;;;;;;4.43;0.95;;;9.80;99.90;;;;;;5035225;28;20056;-61
2022/11/02 01:51:30;;;;;;;6.95;1.20;;;9.80;99.90;;;;;;5037412;28;20382;-60
2022/11/02 01:53:57;;;;;;;7.78;1.30;;;9.80;99.90;;;;;;5056519;28;20167;-60
2022/11/02 01:56:24;;;;;;;10.20;1.65;;;9.80;99.90;;;;;;5042191;28;20046;-60
2022/11/02 01:58:51;;;;;;;7.70;1.23;;;9.80;99.90;;;;;;5051660;28;20136;-61
2022/11/02 02:01:17;;;;;;;11.75;1.50;;;9.70;99.90;;;;;;5046506;28;20431;-61
2022/11/02 02:03:44;;;;;;;7.35;1.52;;;9.70;99.90;;;;;;5053566;28;20404;-61
2022/11/02 02:06:12;;;;;;;8.80;1.48;;;9.70;99.90;;;;;;5052641;28;20087;-62
2022/11/02 02:08:38;;;;;;;6.22;1.40;;;9.70;99.90;;;;;;5039670;28;20054;-61
2022/11/02 02:11:05;;;;;;;8.35;1.27;;;9.70;99.90;;;;;;5044257;28;20401;-61
2022/11/02 02:13:32;;;;;;;6.82;1.40;;;9.70;99.90;;;;;;5055824;28;20490;-60
2022/11/02 02:15:59;;;;;;;12.13;1.52;;;9.70;99.90;;;;;;5055033;28;20045;-60
2022/11/02 02:18:26;;;;;;;6.80;1.40;;;9.70;99.90;;;;;;5054586;28;20037;-60
2022/11/02 02:20:53;;;;;;;9.52;2.10;;;9.60;99.90;;;;;;5044476;28;20045;-61
2022/11/02 02:23:21;;;;;;;6.70;1.38;;;9.60;99.90;;;;;;5053937;28;20048;-61
2022/11/02 02:25:50;;;;;;;5.90;1.10;;;9.60;99.90;;;;;;5045906;28;20064;-61
2022/11/02 02:28:18;;;;;;;7.45;1.60;;;9.60;99.90;;;;;;5054166;28;20049;-61
2022/11/02 02:30:45;;;;;;;6.72;1.08;;;9.60;99.90;;;;;;5054107;28;20045;-61
2022/11/02 02:33:12;;;;;;;6.95;1.67;;;9.60;99.90;;;;;;5055467;28;20049;-62
2022/11/02 02:35:39;;;;;;;9.50;1.48;;;9.60;99.90;;;;;;5053931;28;20045;-61
2022/11/02 02:38:05;;;;;;;9.82;1.40;;;9.60;99.90;;;;;;5043487;28;20041;-61
2022/11/02 02:40:34;;;;;;;8.88;1.48;;;9.60;99.90;;;;;;5050732;28;20038;-62
2022/11/02 02:43:01;;;;;;;11.23;1.95;;;9.60;99.90;;;;;;5036537;28;20033;-61
2022/11/02 02:45:28;;;;;;;9.93;1.60;;;9.60;99.90;;;;;;5035139;28;20055;-61
2022/11/02 02:47:54;;;;;;;7.82;1.40;;;9.50;99.90;;;;;;5050855;28;20053;-60
2022/11/02 02:50:21;;;;;;;8.45;1.45;;;9.50;99.90;;;;;;5035371;28;20046;-61
2022/11/02 02:52:48;;;;;;;13.40;1.70;;;9.50;99.90;;;;;;5035423;28;20433;-61
2022/11/02 02:55:15;;;;;;;8.43;1.35;;;9.50;99.90;;;;;;5033752;28;20065;-61
2022/11/02 02:57:42;;;;;;;9.65;1.85;;;9.50;99.90;;;;;;5033752;28;20474;-61
2022/11/02 03:00:08;;;;;;;9.45;1.73;;;9.50;99.90;;;;;;5047160;28;20045;-62
2022/11/02 03:02:35;;;;;;;7.72;1.75;;;9.40;99.90;;;;;;5035160;28;20039;-61
2022/11/02 03:05:02;;;;;;;7.80;1.38;;;9.40;99.90;;;;;;5050851;28;20041;-61
2022/11/02 03:07:29;;;;;;;10.60;1.90;;;9.40;99.90;;;;;;5050033;28;20513;-61
2022/11/02 03:10:03;;;;;;;10.32;1.75;;;9.40;99.90;;;;;;5050253;28;20124;-61
2022/11/02 03:12:31;;;;;;;12.05;2.00;;;9.40;99.90;;;;;;5035045;28;20046;-60
2022/11/02 03:14:58;;;;;;;12.32;1.70;;;9.40;99.90;;;;;;5033411;28;20053;-61
2022/11/02 03:17:27;;;;;;;10.52;1.90;;;9.40;99.90;;;;;;5033886;28;20045;-62
2022/11/02 03:19:54;;;;;;;9.18;2.05;;;9.40;99.90;;;;;;5043710;28;20041;-61
2022/11/02 03:22:21;;;;;;;11.55;1.80;;;9.40;99.90;;;;;;5040048;28;20044;-61
2022/11/02 03:24:48;;;;;;;10.82;1.70;;;9.40;99.90;;;;;;5035259;28;20404;-62
2022/11/02 03:27:15;;;;;;;9.75;2.45;;;9.40;99.90;;;;;;5049159;28;20401;-61
2022/11/02 03:29:43;;;;;;;9.52;1.90;;;9.40;99.90;;;;;;5033449;28;20053;-61
2022/11/02 03:32:09;;;;;;;10.82;2.13;;;9.40;99.90;;;;;;5043498;28;20057;-60
2022/11/02 03:34:37;;;;;;;10.07;1.50;;;9.30;99.90;;;;;;5050815;28;20091;-61
2022/11/02 03:37:04;;;;;;;11.43;1.50;;;9.30;99.90;;;;;;5044242;28;20045;-61
2022/11/02 03:39:31;;;;;;;11.95;1.95;;;9.30;99.90;;;;;;5054280;28;20515;-61
2022/11/02 03:41:58;;;;;;;13.63;1.90;;;9.30;99.90;;;;;;5036052;28;20374;-61
2022/11/02 03:44:24;;;;;;;9.02;1.70;;;9.30;99.90;;;;;;5034152;28;20506;-61
2022/11/02 03:46:52;;;;;;;12.32;1.85;;;9.30;99.90;;;;;;5038164;28;20051;-60
2022/11/02 03:49:18;;;;;;;10.40;1.80;;;9.30;99.90;;;;;;5050660;28;20451;-61
2022/11/02 03:51:47;;;;;;;11.82;2.15;;;9.20;99.90;;;;;;5052175;28;20045;-61
2022/11/02 03:54:14;;;;;;;10.48;2.00;;;9.20;99.90;;;;;;5052778;28;20119;-60
2022/11/02 03:56:41;;;;;;;11.07;2.30;;;9.20;99.90;;;;;;5052320;28;20098;-61
2022/11/02 03:59:08;;;;;;;8.90;2.28;;;9.20;99.90;;;;;;5053070;28;20041;-62
2022/11/02 04:01:35;;;;;;;12.77;1.77;;;9.20;99.90;;;;;;5051786;28;20443;-61
2022/11/02 04:04:02;;;;;;;11.20;1.73;;;9.20;99.90;;;;;;5040850;28;20052;-61
2022/11/02 04:06:29;;;;;;;10.50;1.70;;;9.20;99.90;;;;;;5032578;28;20061;-62
2022/11/02 04:08:56;;;;;;;14.13;1.90;;;9.10;99.90;;;;;;5032768;28;20083;-60
2022/11/02 04:19:47;;;;;;;8.63;1.70;;;9.10;99.90;;;;;;5032860;28;20056;-60
2022/11/02 04:25:17;;;;;;;11.00;1.80;;;9.00;99.90;;;;;;5032305;28;20054;-61
2022/11/02 04:27:51;;;;;;;10.30;1.95;;;9.00;99.90;;;;;;5032562;28;20515;-60
2022/11/02 04:30:23;;;;;;;10.10;1.92;;;9.00;99.90;;;;;;5032720;28;20458;-63
2022/11/02 04:35:44;;;;;;;11.52;2.15;;;8.90;99.90;;;;;;5032125;28;20408;-61
2022/11/02 04:41:41;;;;;;;12.82;2.33;;;8.90;99.90;;;;;;5051310;28;20152;-61
2022/11/02 04:44:36;;;;;;;8.90;2.25;;;8.90;99.90;;;;;;5040920;28;20076;-61
2022/11/02 04:47:15;;;;;;;10.90;2.25;;;8.90;99.90;;;;;;5050815;28;20052;-62
2022/11/02 04:49:44;;;;;;;14.10;2.35;;;8.90;99.90;;;;;;5057982;28;20079;-62
2022/11/02 04:52:15;;;;;;;12.23;1.73;;;8.90;99.90;;;;;;5056104;28;20041;-62
2022/11/02 04:54:47;;;;;;;11.93;1.92;;;8.90;99.90;;;;;;5056168;28;20095;-62
2022/11/02 04:57:14;;;;;;;12.27;2.30;;;8.80;99.90;;;;;;5057233;28;20037;-61
2022/11/02 04:59:42;;;;;;;14.93;2.20;;;8.90;99.90;;;;;;5043214;28;20042;-61
2022/11/02 05:02:08;;;;;;;13.35;2.05;;;8.80;99.90;;;;;;5054006;28;20072;-61
2022/11/02 05:04:36;;;;;;;12.38;2.25;;;8.80;99.90;;;;;;5051295;28;20045;-62
2022/11/02 05:07:06;;;;;;;8.88;1.88;;;8.80;99.90;;;;;;5038162;28;20053;-62
2022/11/02 05:09:34;;;;;;;15.77;2.38;;;8.80;99.90;;;;;;5036553;28;20049;-60
2022/11/02 05:12:03;;;;;;;14.32;2.28;;;8.80;99.90;;;;;;5035726;28;20069;-61
2022/11/02 05:14:31;;;;;;;12.40;2.08;;;8.80;99.90;;;;;;5052551;28;20049;-61
2022/11/02 05:16:59;;;;;;;13.15;1.73;;;8.80;99.90;;;;;;5052871;28;20053;-62
2022/11/02 05:19:27;;;;;;;13.18;1.98;;;8.80;99.90;;;;;;5039700;28;20442;-61
2022/11/02 05:21:54;;;;;;;15.63;2.72;;;8.80;99.90;;;;;;5037144;28;20065;-61
2022/11/02 05:24:22;;;;;;;16.85;2.72;;;8.80;99.90;;;;;;5036943;28;20392;-61
2022/11/02 05:26:50;;;;;;;12.75;2.42;;;8.80;99.90;;;;;;5053560;28;20080;-62
2022/11/02 05:29:21;;;;;;;14.57;2.00;;;8.80;99.90;;;;;;5037174;28;20148;-62
2022/11/02 05:31:48;;;;;;;12.48;2.35;;;8.80;99.90;;;;;;5036749;28;20069;-61
2022/11/02 05:34:15;;;;;;;11.57;1.90;;;8.80;99.90;;;;;;5051471;28;20044;-61
2022/11/02 05:36:42;;;;;;;12.55;2.00;;;8.80;99.90;;;;;;5055314;28;20469;-62
2022/11/02 05:39:09;;;;;;;13.55;1.60;;;8.80;99.90;;;;;;5055621;28;20068;-61
2022/11/02 05:41:35;;;;;;;14.38;2.47;;;8.80;99.90;;;;;;5038409;28;20041;-62
2022/11/02 05:44:03;;;;;;;13.27;1.90;;;8.80;99.90;;;;;;5050991;28;20114;-62
2022/11/02 05:46:30;;;;;;;12.27;2.10;;;8.90;99.90;;;;;;5041342;28;20041;-62
2022/11/02 05:48:57;;;;;;;16.25;2.20;;;8.90;99.90;;;;;;5052434;28;20492;-61
2022/11/02 05:51:23;;;;;;;13.02;2.15;;;8.90;99.90;;;;;;5056509;28;20095;-62
2022/11/02 05:53:50;;;;;;;14.20;2.20;;;8.90;99.90;;;;;;5056567;28;20053;-61
2022/11/02 05:56:17;;;;;;;12.98;1.95;;;8.90;99.90;;;;;;5054657;28;20067;-62
2022/11/02 05:58:51;;;;;;;9.52;2.08;;;8.90;99.90;;;;;;5053517;28;20124;-62
2022/11/02 06:01:22;;;;;;;13.40;1.98;;;9.00;99.90;;;;;;5036606;28;20037;-62
2022/11/02 06:03:49;;;;;;;9.45;2.25;;;8.90;99.90;;;;;;5041720;28;20445;-62
2022/11/02 06:06:20;;;;;;;15.02;2.20;;;9.00;99.90;;;;;;5042905;28;20426;-62
2022/11/02 06:08:46;;;;;;;13.23;2.53;;;8.90;99.90;;;;;;5054027;28;20408;-62
2022/11/02 06:11:13;;;;;;;13.15;1.65;;;9.00;99.90;;;;;;5038657;28;20446;-62
2022/11/02 06:13:40;;;;;;;12.18;1.90;;;9.00;99.90;;;;;;5056097;28;20128;-62
2022/11/02 06:16:08;;;;;;;14.20;2.08;;;8.90;99.90;;;;;;5055593;28;20045;-61
2022/11/02 06:18:36;;;;;;;15.30;2.67;;;9.00;99.90;;;;;;5054453;28;20064;-62
2022/11/02 06:21:02;;;;;;;12.63;2.65;;;8.90;99.90;;;;;;5052062;28;20072;-62
2022/11/02 06:23:29;;;;;;;13.43;2.40;;;9.00;99.90;;;;;;5037243;28;20040;-61
2022/11/02 06:25:56;;;;;;;15.75;2.15;;;9.00;99.90;;;;;;5053871;28;20037;-62
2022/11/02 06:28:23;;;;;;;16.05;2.40;;;9.00;99.90;;;;;;5052541;28;20041;-62
2022/11/02 06:30:50;;;;;;;16.88;2.47;;;8.90;99.90;;;;;;5049004;28;20025;-61
2022/11/02 06:33:17;;;;;;;10.45;2.55;;;9.00;99.90;;;;;;5035995;28;20043;-61
2022/11/02 06:35:44;;;;;;;14.45;2.45;;;9.00;99.90;;;;;;5050138;28;20103;-61
2022/11/02 06:38:11;;;;;;;13.32;2.25;;;9.00;99.90;;;;;;5052611;28;20388;-61
2022/11/02 06:40:38;;;;;;;10.63;2.20;;;8.90;99.90;;;;;;5055555;28;20057;-61
2022/11/02 06:43:05;;;;;;;16.45;2.30;;;9.00;99.90;;;;;;5055685;28;20045;-62
2022/11/02 06:45:47;;;;;;;11.02;2.20;;;9.00;99.90;;;;;;5052182;28;20056;-62
2022/11/02 06:48:14;;;;;;;13.52;2.20;;;9.00;99.90;;;;;;5054852;28;20045;-61
2022/11/02 06:50:41;;;;;;;15.75;2.53;;;8.90;99.90;;;;;;5035435;28;20539;-61
2022/11/02 06:53:07;;;;;;;14.18;1.98;;;9.00;99.90;;;;;;5039684;28;20076;-61
2022/11/02 06:55:34;;;;;;;10.98;2.03;;;9.00;99.90;;;;;;5035198;28;20128;-60
2022/11/02 06:58:01;;;;;;;16.08;2.00;;;9.00;99.90;;;;;;5040904;28;20099;-62
2022/11/02 07:00:28;;;;;;;8.80;2.22;;;9.00;99.90;;;;;;5049349;28;20072;-62
2022/11/02 07:02:55;;;;;;;9.32;1.80;;;9.00;99.90;;;;;;5050666;28;20099;-60
2022/11/02 07:05:22;;;;;;;14.00;2.20;;;9.00;99.90;;;;;;5038390;28;20496;-60
2022/11/02 07:07:49;;;;;;;13.75;1.80;;;9.00;99.90;;;;;;5041340;28;20033;-62
2022/11/02 07:10:16;;;;;;;13.05;2.30;;;9.10;99.90;;;;;;5052435;28;20103;-62
2022/11/02 07:12:42;;;;;;;15.98;2.38;;;9.10;99.90;;;;;;5051957;28;20073;-62
2022/11/02 07:15:09;;;;;;;10.57;2.20;;;9.10;99.90;;;;;;5051805;28;20057;-62
2022/11/02 07:17:36;;;;;;;15.23;2.20;;;9.10;99.90;;;;;;5052676;28;20136;-62
2022/11/02 07:20:04;;;;;;;13.75;2.20;;;9.10;99.90;;;;;;5053266;28;20306;-62
2022/11/02 07:22:30;;;;;;;13.40;2.22;;;9.10;99.90;;;;;;5054759;28;20131;-62
2022/11/02 07:24:57;;;;;;;17.27;3.05;;;9.20;99.90;;;;;;5053268;28;20107;-62
2022/11/02 07:27:24;;;;;;;13.85;2.13;;;9.20;99.90;;;;;;5051596;28;20107;-61
2022/11/02 07:29:50;;;;;;;12.15;2.13;;;9.20;99.90;;;;;;5054736;28;20495;-62
2022/11/02 07:32:17;;;;;;;13.73;2.60;;;9.20;99.90;;;;;;5049925;28;20038;-63
2022/11/02 07:34:44;;;;;;;16.13;2.83;;;9.20;99.90;;;;;;5051612;28;20051;-62
2022/11/02 07:37:10;;;;;;;13.45;3.20;;;9.20;99.90;;;;;;5051329;28;20119;-61
2022/11/02 07:39:37;;;;;;;12.65;3.10;;;9.20;99.90;;;;;;5052391;28;20057;-62
2022/11/02 07:42:05;;;;;;;14.90;2.45;;;9.20;99.90;;;;;;5039857;28;20086;-61
2022/11/02 07:44:32;;;;;;;11.77;2.30;;;9.20;99.90;;;;;;5037738;28;20041;-61
2022/11/02 07:47:00;;;;;;;11.90;2.15;;;9.20;99.90;;;;;;5047444;28;20094;-61
2022/11/02 07:49:26;;;;;;;11.35;2.13;;;9.30;99.90;;;;;;5037285;28;20045;-60
2022/11/02 07:51:53;;;;;;;13.55;2.00;;;9.30;99.90;;;;;;5039528;28;20144;-61
2022/11/02 07:54:20;;;;;;;15.52;2.88;;;9.30;99.90;;;;;;5035254;28;20503;-61
2022/11/02 07:56:47;;;;;;;14.98;2.50;;;9.30;99.90;;;;;;5046673;28;20044;-61
2022/11/02 07:59:13;;;;;;;14.32;2.58;;;9.30;99.90;;;;;;5043732;28;20052;-61
2022/11/02 08:01:40;;;;;;;13.98;2.38;;;9.30;99.90;;;;;;5046541;28;20376;-62
2022/11/02 08:04:07;;;;;;;9.10;1.85;;;9.40;99.90;;;;;;5044741;28;20401;-61
2022/11/02 08:06:34;;;;;;;19.13;2.78;;;9.40;99.90;;;;;;5050545;28;20049;-62
2022/11/02 08:09:02;;;;;;;17.88;3.20;;;9.50;99.90;;;;;;5050502;28;20116;-61
2022/11/02 08:11:28;;;;;;;14.90;2.17;;;9.50;99.90;;;;;;5054133;28;20048;-61
2022/11/02 08:13:55;;;;;;;12.18;2.20;;;9.60;99.90;;;;;;5051815;28;20068;-62
2022/11/02 08:16:22;;;;;;;13.15;3.00;;;9.70;99.90;;;;;;5044144;28;20049;-61
2022/11/02 08:18:49;;;;;;;14.25;2.90;;;9.70;99.90;;;;;;5042443;28;20041;-62
2022/11/02 08:21:15;;;;;;;15.20;2.95;;;9.80;99.90;;;;;;5053041;28;20140;-61
2022/11/02 08:23:42;;;;;;;10.85;2.22;;;9.90;99.90;;;;;;5052329;28;20052;-61
2022/11/02 08:26:09;;;;;;;15.00;2.33;;;9.90;99.90;;;;;;5053250;28;20530;-62
2022/11/02 08:28:38;;;;;;;10.60;2.17;;;10.00;99.90;;;;;;5053066;28;20040;-62
2022/11/02 08:31:08;;;;;;;16.85;3.30;;;10.00;99.90;;;;;;5039522;28;20136;-63
2022/11/02 08:33:35;;;;;;;14.73;2.60;;;10.10;99.90;;;;;;5048653;28;20499;-62
2022/11/02 08:36:03;;;;;;;17.63;2.75;;;10.20;99.90;;;;;;5031650;28;20049;-62
2022/11/02 08:38:29;;;;;;;24.20;10.43;;;10.20;99.90;;;;;;5037122;28;20037;-62
2022/11/02 08:40:56;;;;;;;18.27;3.08;;;10.30;99.90;;;;;;5045575;28;20048;-62
2022/11/02 08:43:23;;;;;;;14.43;3.05;;;10.30;99.90;;;;;;5040959;28;20116;-62
2022/11/02 08:45:50;;;;;;;19.40;2.70;;;10.30;99.90;;;;;;5037421;28;20115;-61
2022/11/02 08:48:36;;;;;;;16.17;2.80;;;10.40;99.90;;;;;;5048118;28;20039;-61
2022/11/02 08:51:04;;;;;;;20.67;3.08;;;10.50;99.90;;;;;;5047316;28;20067;-61
2022/11/02 08:53:31;;;;;;;16.75;2.85;;;10.60;99.90;;;;;;5051034;28;20040;-61
2022/11/02 08:55:58;;;;;;;20.13;3.00;;;10.70;99.90;;;;;;5043068;28;20068;-61
2022/11/02 08:58:24;;;;;;;17.02;2.65;;;10.70;99.90;;;;;;5042440;28;20103;-61
2022/11/02 09:00:51;;;;;;;16.38;2.55;;;10.70;99.90;;;;;;5046133;28;20056;-61
2022/11/02 09:03:19;;;;;;;13.85;2.70;;;10.80;99.90;;;;;;5050050;28;20065;-61
2022/11/02 09:05:52;;;;;;;18.27;2.80;;;10.80;99.90;;;;;;5050409;28;20455;-61
2022/11/02 09:08:18;;;;;;;14.98;2.75;;;10.90;99.90;;;;;;5048422;28;20407;-61
2022/11/02 09:10:46;;;;;;;21.98;3.67;;;11.00;99.90;;;;;;5042547;28;20038;-60
2022/11/02 09:13:12;;;;;;;14.05;2.47;;;11.00;99.90;;;;;;5039859;28;20152;-62
2022/11/02 09:15:39;;;;;;;19.10;2.90;;;11.10;99.90;;;;;;5042465;28;20045;-61
2022/11/02 09:18:06;;;;;;;15.63;3.13;;;11.10;99.90;;;;;;5042487;28;20072;-61
2022/11/02 09:20:33;;;;;;;20.40;3.45;;;11.20;99.90;;;;;;5049617;28;20037;-61
2022/11/02 09:23:00;;;;;;;21.60;4.00;;;11.30;99.90;;;;;;5045696;28;20559;-61
2022/11/02 09:25:27;;;;;;;15.95;2.78;;;11.30;99.90;;;;;;5049064;28;20124;-62
2022/11/02 09:27:54;;;;;;;16.17;2.70;;;11.40;99.90;;;;;;5042681;28;20113;-61
2022/11/02 09:30:21;;;;;;;19.65;2.90;;;11.40;99.90;;;;;;5047911;28;20041;-62
2022/11/02 09:32:48;;;;;;;17.35;3.50;;;11.40;99.90;;;;;;5045834;28;20049;-61
2022/11/02 09:35:14;;;;;;;14.60;3.00;;;11.50;99.90;;;;;;5052310;28;20373;-61
2022/11/02 09:37:41;;;;;;;14.77;2.90;;;11.50;99.90;;;;;;5053357;28;20076;-61
2022/11/02 09:40:15;;;;;;;21.80;3.63;;;11.60;99.90;;;;;;5053568;28;20506;-60
2022/11/02 09:42:42;;;;;;;16.55;3.20;;;11.60;99.90;;;;;;5053380;28;20052;-62
2022/11/02 09:45:08;;;;;;;17.55;2.95;;;11.70;99.90;;;;;;5049367;28;20119;-61
2022/11/02 09:47:35;;;;;;;22.00;3.22;;;11.60;99.90;;;;;;5048118;28;20463;-60
2022/11/02 09:50:22;;;;;;;15.73;2.60;;;11.70;99.90;;;;;;5047684;28;20110;-61
2022/11/02 09:52:49;;;;;;;19.08;2.72;;;11.70;99.90;;;;;;5051165;28;20080;-61
2022/11/02 09:55:15;;;;;;;17.35;2.75;;;11.80;99.90;;;;;;5053033;28;20406;-62
2022/11/02 09:57:42;;;;;;;12.15;2.97;;;11.80;99.90;;;;;;5050627;28;20503;-60
2022/11/02 10:00:09;;;;;;;20.30;3.85;;;11.90;99.90;;;;;;5055687;28;20037;-61
2022/11/02 10:02:35;;;;;;;18.77;3.20;;;11.90;99.90;;;;;;5051307;28;20095;-61
2022/11/02 10:05:02;;;;;;;17.25;3.80;;;12.00;99.90;;;;;;5049153;28;20128;-60
2022/11/02 10:07:29;;;;;;;21.00;3.15;;;12.10;99.90;;;;;;5048599;28;20045;-61
2022/11/02 10:09:56;;;;;;;16.85;3.03;;;12.20;99.90;;;;;;5054359;28;20071;-60
2022/11/02 10:12:22;;;;;;;21.73;3.88;;;12.30;99.90;;;;;;5055673;28;20535;-61
2022/11/02 10:14:49;;;;;;;17.48;3.08;;;12.40;99.90;;;;;;5055249;28;20048;-61
2022/11/02 10:17:16;;;;;;;18.05;3.92;;;12.50;99.90;;;;;;5055361;28;20461;-61
2022/11/02 10:19:42;;;;;;;24.52;3.60;;;12.50;99.90;;;;;;5054855;28;20067;-61
2022/11/02 10:22:09;;;;;;;21.65;3.42;;;12.50;99.90;;;;;;5055117;28;20392;-61
2022/11/02 10:24:36;;;;;;;65.65;6.95;;;12.60;99.90;;;;;;5055325;28;20033;-61
2022/11/02 10:27:03;;;;;;;19.33;3.75;;;12.60;99.90;;;;;;5055479;28;20106;-61
2022/11/02 10:29:29;;;;;;;19.60;3.47;;;12.60;99.90;;;;;;5055477;28;20064;-61
2022/11/02 10:31:56;;;;;;;18.27;3.75;;;12.60;99.90;;;;;;5055339;28;20043;-60
2022/11/02 10:34:23;;;;;;;17.17;3.05;;;12.60;99.90;;;;;;5054564;28;20111;-61
2022/11/02 10:36:49;;;;;;;19.08;3.13;;;12.60;99.90;;;;;;5055065;28;20077;-60
2022/11/02 10:39:16;;;;;;;19.10;3.08;;;12.60;99.90;;;;;;5053958;28;20067;-61
2022/11/02 10:41:43;;;;;;;19.08;3.47;;;12.60;99.90;;;;;;5054437;28;20103;-61
2022/11/02 10:44:10;;;;;;;13.85;3.05;;;12.70;99.90;;;;;;5055020;28;20045;-61
2022/11/02 10:46:37;;;;;;;19.50;3.67;;;12.70;99.90;;;;;;5053388;28;20041;-61
2022/11/02 10:49:03;;;;;;;20.27;3.08;;;12.70;99.90;;;;;;5047713;28;20425;-62
2022/11/02 10:51:30;;;;;;;18.77;3.97;;;12.80;99.90;;;;;;5054635;28;20102;-62
2022/11/02 10:53:57;;;;;;;14.85;3.33;;;12.80;99.90;;;;;;5049904;28;20114;-61
2022/11/02 10:56:23;;;;;;;20.52;3.45;;;12.90;99.90;;;;;;5051987;28;20377;-61
2022/11/02 10:58:50;;;;;;;18.35;3.58;;;13.00;99.90;;;;;;5048518;28;20449;-62
2022/11/02 11:01:17;;;;;;;22.33;3.67;;;13.10;99.90;;;;;;5052720;28;20163;-61
2022/11/02 11:03:44;;;;;;;31.92;12.10;;;13.20;99.90;;;;;;5052474;28;20037;-61
2022/11/02 11:06:10;;;;;;;17.13;3.40;;;13.20;99.90;;;;;;5049144;28;20469;-60
2022/11/02 11:08:37;;;;;;;22.30;3.50;;;13.30;99.90;;;;;;5050403;28;20065;-62
2022/11/02 11:11:04;;;;;;;14.98;3.03;;;13.40;99.90;;;;;;5047859;28;20029;-62
2022/11/02 11:13:31;;;;;;;17.02;3.05;;;13.40;99.90;;;;;;5053639;28;20110;-62
2022/11/02 11:16:17;;;;;;;21.13;3.10;;;13.50;99.90;;;;;;5043822;28;20051;-61
2022/11/02 11:18:48;;;;;;;25.58;4.03;;;13.50;99.90;;;;;;5052557;28;20041;-61
2022/11/02 11:21:35;;;;;;;18.75;3.50;;;13.60;99.90;;;;;;5049665;28;20136;-61
2022/11/02 11:24:01;;;;;;;20.52;3.72;;;13.60;99.90;;;;;;5050996;28;20060;-61
2022/11/02 11:26:28;;;;;;;47.42;6.53;;;13.70;99.90;;;;;;5052276;28;20396;-61
2022/11/02 11:28:55;;;;;;;26.67;4.60;;;13.70;99.90;;;;;;5051262;28;20073;-60
2022/11/02 11:31:22;;;;;;;17.05;4.05;;;13.80;99.90;;;;;;5045375;28;20072;-62
2022/11/02 11:33:48;;;;;;;15.27;3.10;;;13.90;99.90;;;;;;5052573;28;20044;-62
2022/11/02 11:36:15;;;;;;;24.75;3.85;;;13.90;99.90;;;;;;5050484;28;20095;-61
2022/11/02 11:38:42;;;;;;;19.67;4.00;;;14.00;99.90;;;;;;5052382;28;20056;-62
2022/11/02 11:41:09;;;;;;;23.63;4.35;;;14.10;99.90;;;;;;5054114;28;20098;-61
2022/11/02 11:43:37;;;;;;;17.73;3.80;;;14.10;99.90;;;;;;5044325;28;20094;-62
2022/11/02 11:46:04;;;;;;;19.77;3.67;;;14.10;99.90;;;;;;5044574;28;20056;-62
2022/11/02 11:48:32;;;;;;;20.02;3.58;;;14.20;99.90;;;;;;5050906;28;20067;-60
2022/11/02 11:50:59;;;;;;;20.00;4.22;;;14.20;99.90;;;;;;5044277;28;20129;-61
2022/11/02 11:53:26;;;;;;;22.08;4.05;;;14.30;99.90;;;;;;5050009;28;21026;-61
2022/11/02 11:55:53;;;;;;;12.68;3.00;;;14.30;99.90;;;;;;5051796;28;20041;-61
2022/11/02 11:58:20;;;;;;;13.98;3.00;;;14.30;99.90;;;;;;5053424;28;20068;-61
2022/11/02 12:00:46;;;;;;;18.35;3.30;;;14.30;99.90;;;;;;5051122;28;20104;-61
2022/11/02 12:03:15;;;;;;;15.05;2.97;;;14.30;99.90;;;;;;5048040;28;20625;-61
2022/11/02 12:05:42;;;;;;;89.85;6.20;;;14.30;99.90;;;;;;5044947;28;20065;-60
2022/11/02 12:08:08;;;;;;;14.90;3.15;;;14.20;99.90;;;;;;5051504;28;20041;-61
2022/11/02 12:10:36;;;;;;;27.50;4.38;;;14.30;99.90;;;;;;5049779;28;20051;-60
2022/11/02 12:13:02;;;;;;;18.10;3.47;;;14.30;99.90;;;;;;5050500;28;20075;-60
2022/11/02 12:15:30;;;;;;;16.02;3.20;;;14.30;99.90;;;;;;5039097;28;20053;-61
2022/11/02 12:17:57;;;;;;;14.75;3.20;;;14.40;99.90;;;;;;5048376;28;20095;-61
2022/11/02 12:20:23;;;;;;;95.25;6.60;;;14.40;99.90;;;;;;5041109;28;20040;-60
2022/11/02 12:22:50;;;;;;;16.17;3.13;;;14.40;99.90;;;;;;5039883;28;20029;-61
2022/11/02 12:25:17;;;;;;;20.80;2.83;;;14.40;99.90;;;;;;5048119;28;20033;-60
2022/11/02 12:27:46;;;;;;;21.33;3.35;;;14.40;99.90;;;;;;5047659;28;20049;-60
2022/11/02 12:30:13;;;;;;;14.80;3.25;;;14.50;99.90;;;;;;5049608;28;20190;-60
2022/11/02 12:32:40;;;;;;;20.42;3.67;;;14.40;99.90;;;;;;5050358;28;20064;-60
2022/11/02 12:35:07;;;;;;;14.48;3.17;;;14.50;99.90;;;;;;5052609;28;20140;-59
2022/11/02 12:37:54;;;;;;;19.10;3.58;;;14.50;99.90;;;;;;5048287;28;20051;-60
2022/11/02 12:40:20;;;;;;;18.25;3.00;;;14.50;99.90;;;;;;5047868;28;20415;-61
2022/11/02 12:42:47;;;;;;;19.85;3.80;;;14.50;99.90;;;;;;5045503;28;20126;-60
2022/11/02 12:45:14;;;;;;;19.00;3.50;;;14.50;99.90;;;;;;5050154;28;20154;-60
2022/11/02 12:47:41;;;;;;;15.00;3.22;;;14.50;99.90;;;;;;5042902;28;20545;-60
2022/11/02 12:50:07;;;;;;;20.65;3.85;;;14.50;99.90;;;;;;5045411;28;20041;-61
2022/11/02 12:52:34;;;;;;;17.08;3.58;;;14.50;99.90;;;;;;5043190;28;23994;-61
2022/11/02 12:55:01;;;;;;;20.00;4.35;;;14.60;99.90;;;;;;5050184;28;20033;-61
2022/11/02 12:57:27;;;;;;;18.98;3.47;;;14.60;99.90;;;;;;5043018;28;20072;-62
2022/11/02 12:59:54;;;;;;;19.35;3.60;;;14.50;99.90;;;;;;5052243;28;20048;-59
2022/11/02 13:02:21;;;;;;;39.60;4.57;;;14.50;99.90;;;;;;5050350;28;20510;-62
2022/11/02 13:04:48;;;;;;;24.35;4.22;;;14.50;99.90;;;;;;5051009;28;20065;-62